Home > Products > Valid Products > MTR

000
SAUS46 KSGX 111453
MTRCZZ
METAR KCZZ 111452Z AUTO 02006KT 09/M05 A3015 RMK AO1 SLP193
T00891050 51004





000
SAUS46 KSGX 111353
MTRCZZ
METAR KCZZ 111352Z AUTO 04006KT 12/M06 A3014 RMK AO1 SLP187
T01171061





000
SAUS46 KSGX 111253
MTRCZZ
METAR KCZZ 111252Z AUTO 05005KT 07/M07 A3014 RMK AO1 SLP184
T00721072





000
SAUS46 KSGX 111253
MTRCZZ
METAR KCZZ 111252Z AUTO 05005KT 07/M07 A3014 RMK AO1 SLP184
T00721072





000
SAUS46 KSGX 111153
MTRCZZ
METAR KCZZ 111152Z AUTO 03010KT 11/M07 A3013 RMK AO1 SLP179
T01111072 10111 20039 58009





000
SAUS46 KSGX 111153
MTRCZZ
METAR KCZZ 111152Z AUTO 03010KT 11/M07 A3013 RMK AO1 SLP179
T01111072 10111 20039 58009





000
SAUS46 KSGX 111053
MTRCZZ
METAR KCZZ 111052Z AUTO 00000KT 06/M06 A3014 RMK AO1 SLP185
T00611061





000
SAUS46 KSGX 111053
MTRCZZ
METAR KCZZ 111052Z AUTO 00000KT 06/M06 A3014 RMK AO1 SLP185
T00611061





000
SAUS46 KSGX 110953
MTRCZZ
METAR KCZZ 110952Z AUTO 04006KT 06/M06 A3016 RMK AO1 SLP191
T00611056





000
SAUS46 KSGX 110953
MTRCZZ
METAR KCZZ 110952Z AUTO 04006KT 06/M06 A3016 RMK AO1 SLP191
T00611056





000
SAUS46 KSGX 110853
MTRCZZ
METAR KCZZ 110852Z AUTO 04005KT 07/M06 A3016 RMK AO1 SLP192
T00671056 58002





000
SAUS46 KSGX 110853
MTRCZZ
METAR KCZZ 110852Z AUTO 04005KT 07/M06 A3016 RMK AO1 SLP192
T00671056 58002





000
SAUS46 KSGX 110753
MTRCZZ
METAR KCZZ 110752Z AUTO 02003KT 06/M06 A3017 RMK AO1 SLP193
T00611056 402500017





000
SAUS46 KSGX 110653
MTRCZZ
METAR KCZZ 110652Z AUTO 02007KT 11/M06 A3017 RMK AO1 SLP190
T01111061





000
SAUS46 KSGX 110653
MTRCZZ
METAR KCZZ 110652Z AUTO 02007KT 11/M06 A3017 RMK AO1 SLP190
T01111061





000
SAUS46 KSGX 110553
MTRCZZ
METAR KCZZ 110552Z AUTO 00000KT 09/M06 A3017 RMK AO1 SLP192
T00891056 10233 20061 52004





000
SAUS46 KSGX 110553
MTRCZZ
METAR KCZZ 110552Z AUTO 00000KT 09/M06 A3017 RMK AO1 SLP192
T00891056 10233 20061 52004





000
SAUS46 KSGX 110453
MTRCZZ
METAR KCZZ 110452Z AUTO 03004KT 06/M04 A3017 RMK AO1 SLP199
T00611044





000
SAUS46 KSGX 110453
MTRCZZ
METAR KCZZ 110452Z AUTO 03004KT 06/M04 A3017 RMK AO1 SLP199
T00611044





000
SAUS46 KSGX 110353
MTRCZZ
METAR KCZZ 110352Z AUTO 05005KT 10/M06 A3016 RMK AO1 SLP197
T01001056





000
SAUS46 KSGX 110253
MTRCZZ
METAR KCZZ 110252Z AUTO 04008KT 13/M06 A3016 RMK AO1 SLP198
T01331056 51007





000
SAUS46 KSGX 110253
MTRCZZ
METAR KCZZ 110252Z AUTO 04008KT 13/M06 A3016 RMK AO1 SLP198
T01331056 51007





000
SAUS46 KSGX 110153
MTRCZZ
METAR KCZZ 110152Z AUTO 06007KT 17/M06 A3015 RMK AO1 SLP197
T01721056





000
SAUS46 KSGX 110053
MTRCZZ
METAR KCZZ 110052Z AUTO 06006KT 22/M06 A3015 RMK AO1 SLP190
T02221056





000
SAUS46 KSGX 110053
MTRCZZ
METAR KCZZ 110052Z AUTO 06006KT 22/M06 A3015 RMK AO1 SLP190
T02221056





000
SAUS46 KSGX 102353
MTRCZZ
METAR KCZZ 102352Z AUTO 06012KT 23/M06 A3013 RMK AO1 SLP182
T02331061 10250 20233 55009





000
SAUS46 KSGX 102353
MTRCZZ
METAR KCZZ 102352Z AUTO 06012KT 23/M06 A3013 RMK AO1 SLP182
T02331061 10250 20233 55009





000
SAUS46 KSGX 102253
MTRCZZ
METAR KCZZ 102252Z AUTO 07015KT 24/M06 A3013 RMK AO1 SLP183
T02441056





000
SAUS46 KSGX 102253
MTRCZZ
METAR KCZZ 102252Z AUTO 07015KT 24/M06 A3013 RMK AO1 SLP183
T02441056





000
SAUS46 KSGX 102153
MTRCZZ
METAR KCZZ 102152Z AUTO 07014KT 24/M05 A3015 RMK AO1 SLP186
T02391050





000
SAUS46 KSGX 102053
MTRCZZ
METAR KCZZ 102052Z AUTO 06014KT 24/M05 A3016 RMK AO1 SLP190
T02391050 58015





000
SAUS46 KSGX 101953
MTRCZZ
METAR KCZZ 101952Z AUTO 09016KT 24/M06 A3019 RMK AO1 SLP198
T02441056





000
SAUS46 KSGX 101853
MTRCZZ
METAR KCZZ 101852Z AUTO 06012KT 24/M06 A3021 RMK AO1 SLP207
T02391061





000
SAUS46 KSGX 101853
MTRCZZ
METAR KCZZ 101852Z AUTO 06012KT 24/M06 A3021 RMK AO1 SLP207
T02391061





000
SAUS46 KSGX 101753
MTRCZZ
METAR KCZZ 101752Z AUTO 07016KT 24/M08 A3021 RMK AO1 SLP202
T02391078 10239 20017 50003





000
SAUS46 KSGX 101753
MTRCZZ
METAR KCZZ 101752Z AUTO 07016KT 24/M08 A3021 RMK AO1 SLP202
T02391078 10239 20017 50003





000
SAUS46 KSGX 101653
MTRCZZ
METAR KCZZ 101652Z AUTO 00000KT 18/01 A3022 RMK AO1 SLP214 T01830006





000
SAUS46 KSGX 101553
MTRCZZ
METAR KCZZ 101552Z AUTO 00000KT 11/M02 A3021 RMK AO1 SLP215
T01061017





000
SAUS46 KSGX 101453
MTRCZZ
METAR KCZZ 101452Z AUTO 33003KT 07/M07 A3020 RMK AO1 SLP214
T00671072 51014





000
SAUS46 KSGX 101453
MTRCZZ
METAR KCZZ 101452Z AUTO 33003KT 07/M07 A3020 RMK AO1 SLP214
T00671072 51014





000
SAUS46 KSGX 101353
MTRCZZ
METAR KCZZ 101352Z AUTO 03005KT 02/M05 A3019 RMK AO1 SLP210
T00221050





000
SAUS46 KSGX 101253
MTRCZZ
METAR KCZZ 101252Z AUTO 00000KT 04/M04 A3018 RMK AO1 SLP200
T00441044





000
SAUS46 KSGX 101153
MTRCZZ
METAR KCZZ 101152Z AUTO 00000KT 07/M06 A3016 RMK AO1 SLP192
T00721056 10167 20033 56007





000
SAUS46 KSGX 101153
MTRCZZ
METAR KCZZ 101152Z AUTO 00000KT 07/M06 A3016 RMK AO1 SLP192
T00721056 10167 20033 56007





000
SAUS46 KSGX 101053
MTRCZZ
METAR KCZZ 101052Z AUTO 00000KT 04/M05 A3017 RMK AO1 SLP196
T00391050





000
SAUS46 KSGX 101053
MTRCZZ
METAR KCZZ 101052Z AUTO 00000KT 04/M05 A3017 RMK AO1 SLP196
T00391050





000
SAUS46 KSGX 100953
MTRCZZ
METAR KCZZ 100952Z AUTO 32003KT 09/M06 A3017 RMK AO1 SLP191
T00891061





000
SAUS46 KSGX 100853
MTRCZZ
METAR KCZZ 100852Z AUTO 00000KT 09/M06 A3018 RMK AO1 SLP197
T00941061 53006





000
SAUS46 KSGX 100753
MTRCZZ
METAR KCZZ 100752Z AUTO 31003KT 09/M04 A3017 RMK AO1 SLP191
T00941044 402440039





000
SAUS46 KSGX 100653
MTRCZZ
METAR KCZZ 100652Z AUTO 07006KT 10/M04 A3017 RMK AO1 SLP194
T01001044





000
SAUS46 KSGX 100653
MTRCZZ
METAR KCZZ 100652Z AUTO 07006KT 10/M04 A3017 RMK AO1 SLP194
T01001044





000
SAUS46 KSGX 100553
MTRCZZ
METAR KCZZ 100552Z AUTO VRB05KT 16/M06 A3016 RMK AO1 SLP186
T01611056 10228 20072 50001





000
SAUS46 KSGX 100553
MTRCZZ
METAR KCZZ 100552Z AUTO VRB05KT 16/M06 A3016 RMK AO1 SLP186
T01611056 10228 20072 50001





000
SAUS46 KSGX 100454
MTRCZZ
METAR KCZZ 100452Z AUTO 06006KT 08/M04 A3017 RMK AO1 SLP195
T00831039





000
SAUS46 KSGX 100454
MTRCZZ
METAR KCZZ 100452Z AUTO 06006KT 08/M04 A3017 RMK AO1 SLP195
T00831039





000
SAUS46 KSGX 100354
MTRCZZ
METAR KCZZ 100352Z AUTO 00000KT 09/M03 A3017 RMK AO1 SLP196
T00891028





000
SAUS46 KSGX 100254
MTRCZZ
METAR KCZZ 100252Z AUTO 00000KT 13/M04 A3016 RMK AO1 SLP193
T01281044 51009





000
SAUS46 KSGX 100254
MTRCZZ
METAR KCZZ 100252Z AUTO 00000KT 13/M04 A3016 RMK AO1 SLP193
T01281044 51009





000
SAUS46 KSGX 100153
MTRCZZ
METAR KCZZ 100152Z AUTO 07005KT 18/M06 A3016 RMK AO1 SLP187
T01831056





000
SAUS46 KSGX 100053
MTRCZZ
METAR KCZZ 100052Z AUTO 07015KT 22/M06 A3014 RMK AO1 SLP179
T02171061





000
SAUS46 KSGX 100053
MTRCZZ
METAR KCZZ 100052Z AUTO 07015KT 22/M06 A3014 RMK AO1 SLP179
T02171061





000
SAUS46 KSGX 092354
MTRCZZ
METAR KCZZ 092352Z AUTO 07018KT 23/M05 A3013 RMK AO1 PK WND
07026/2301 SLP180 T02281050 10244 20228 55007





000
SAUS46 KSGX 092354
MTRCZZ
METAR KCZZ 092352Z AUTO 07018KT 23/M05 A3013 RMK AO1 PK WND
07026/2301 SLP180 T02281050 10244 20228 55007





000
SAUS46 KSGX 092253
MTRCZZ
METAR KCZZ 092252Z AUTO 07020G24KT 23/M05 A3013 RMK AO1 PK WND
07027/2218 SLP180 T02331050





000
SAUS46 KSGX 092153
MTRCZZ
METAR KCZZ 092152Z AUTO 07020KT 24/M04 A3013 RMK AO1 PK WND
07027/2138 SLP183 T02391044





000
SAUS46 KSGX 092053
MTRCZZ
METAR KCZZ 092052Z AUTO 06015KT 24/M04 A3016 RMK AO1 SLP189
T02391039 58019





000
SAUS46 KSGX 092053
MTRCZZ
METAR KCZZ 092052Z AUTO 06015KT 24/M04 A3016 RMK AO1 SLP189
T02391039 58019





000
SAUS46 KSGX 091953
MTRCZZ
METAR KCZZ 091952Z AUTO 05014G22KT 24/M04 A3018 RMK AO1 SLP195
T02391039





000
SAUS46 KSGX 091953
MTRCZZ
METAR KCZZ 091952Z AUTO 05014G22KT 24/M04 A3018 RMK AO1 SLP195
T02391039





000
SAUS46 KSGX 091853
MTRCZZ
METAR KCZZ 091852Z AUTO 07018G21KT 23/M04 A3021 RMK AO1 SLP204
T02331039





000
SAUS46 KSGX 091853
MTRCZZ
METAR KCZZ 091852Z AUTO 07018G21KT 23/M04 A3021 RMK AO1 SLP204
T02331039





000
SAUS46 KSGX 091753
MTRCZZ
METAR KCZZ 091752Z AUTO 05008G18KT 23/M04 A3022 RMK AO1 SLP206
T02281044 10228 20083 53009





000
SAUS46 KSGX 091653
MTRCZZ
METAR KCZZ 091652Z AUTO 05013G21KT 22/M04 A3020 RMK AO1 SLP201
T02171044





000
SAUS46 KSGX 091553
MTRCZZ
METAR KCZZ 091552Z AUTO 04007KT 350V080 20/M04 A3019 RMK AO1 SLP198
T02001044





000
SAUS46 KSGX 091453
MTRCZZ
METAR KCZZ 091452Z AUTO 05005KT 17/M06 A3019 RMK AO1 SLP200
T01721056 53012





000
SAUS46 KSGX 091353
MTRCZZ
METAR KCZZ 091352Z AUTO 05011KT 17/M06 A3017 RMK AO1 SLP194
T01721056





000
SAUS46 KSGX 091253
MTRCZZ
METAR KCZZ 091252Z AUTO 04012KT 17/M06 A3016 RMK AO1 SLP187
T01721061





000
SAUS46 KSGX 091153
MTRCZZ
METAR KCZZ 091152Z AUTO 00000KT 10/M06 A3015 RMK AO1 SLP188
T01001056 10150 20039 56010





000
SAUS46 KSGX 091153
MTRCZZ
METAR KCZZ 091152Z AUTO 00000KT 10/M06 A3015 RMK AO1 SLP188
T01001056 10150 20039 56010





000
SAUS46 KSGX 091053
MTRCZZ
METAR KCZZ 091052Z AUTO 07003KT 06/M05 A3016 RMK AO1 SLP194
T00611050





000
SAUS46 KSGX 090953
MTRCZZ
METAR KCZZ 090952Z AUTO 00000KT 06/M05 A3017 RMK AO1 SLP197
T00611050





000
SAUS46 KSGX 090853
MTRCZZ
METAR KCZZ 090852Z AUTO 00000KT 08/M05 A3018 RMK AO1 SLP200
T00831050 50002





000
SAUS46 KSGX 090853
MTRCZZ
METAR KCZZ 090852Z AUTO 00000KT 08/M05 A3018 RMK AO1 SLP200
T00831050 50002





000
SAUS46 KSGX 090753
MTRCZZ
METAR KCZZ 090752Z AUTO VRB04KT 12/M06 A3019 RMK AO1 SLP200
T01171061 402170094





000
SAUS46 KSGX 090653
MTRCZZ
METAR KCZZ 090652Z AUTO 17004KT 11/M06 A3019 RMK AO1 SLP200
T01111056





000
SAUS46 KSGX 090653
MTRCZZ
METAR KCZZ 090652Z AUTO 17004KT 11/M06 A3019 RMK AO1 SLP200
T01111056





000
SAUS46 KSGX 090553
MTRCZZ
METAR KCZZ 090552Z AUTO 00000KT 13/M06 A3018 RMK AO1 SLP195
T01331056 10206 20117 53004





000
SAUS46 KSGX 090453
MTRCZZ
METAR KCZZ 090452Z AUTO 07007KT 14/M06 A3017 RMK AO1 SLP193
T01441061





000
SAUS46 KSGX 090353
MTRCZZ
METAR KCZZ 090352Z AUTO 09006KT 15/M06 A3017 RMK AO1 SLP192
T01501061





000
SAUS46 KSGX 090253
MTRCZZ
METAR KCZZ 090252Z AUTO 08006KT 14/M06 A3016 RMK AO1 SLP193
T01391056 53002





000
SAUS46 KSGX 090153
MTRCZZ
METAR KCZZ 090152Z AUTO 04005KT 16/M07 A3016 RMK AO1 SLP190
T01611067





000
SAUS46 KSGX 090053
MTRCZZ
METAR KCZZ 090052Z AUTO 06014G21KT 19/M07 A3015 RMK AO1 SLP185
T01891067





000
SAUS46 KSGX 082353
MTRCZZ
METAR KCZZ 082352Z AUTO 06014G20KT 21/M06 A3016 RMK AO1 SLP184
T02061061 10217 20194 56003





000
SAUS46 KSGX 082353
MTRCZZ
METAR KCZZ 082352Z AUTO 06014G20KT 21/M06 A3016 RMK AO1 SLP184
T02061061 10217 20194 56003





000
SAUS46 KSGX 082253
MTRCZZ
METAR KCZZ 082252Z AUTO 06012G22KT 21/M06 A3016 RMK AO1 PK WND
07027/2226 SLP186 T02061056





000
SAUS46 KSGX 082253
MTRCZZ
METAR KCZZ 082252Z AUTO 06012G22KT 21/M06 A3016 RMK AO1 PK WND
07027/2226 SLP186 T02061056





000
SAUS46 KSGX 082153
MTRCZZ
METAR KCZZ 082152Z AUTO 06019G26KT 21/M06 A3016 RMK AO1 PK WND
05027/2104 SLP183 T02111061





000
SAUS46 KSGX 082053
MTRCZZ
METAR KCZZ 082052Z AUTO 06015G23KT 21/M05 A3017 RMK AO1 PK WND
05027/2035 SLP188 T02111050 58008





000
SAUS46 KSGX 082053
MTRCZZ
METAR KCZZ 082052Z AUTO 06015G23KT 21/M05 A3017 RMK AO1 PK WND
05027/2035 SLP188 T02111050 58008





000
SAUS46 KSGX 081953
MTRCZZ
METAR KCZZ 081952Z AUTO 06017G30KT 20/M06 A3019 RMK AO1 PK WND
07033/1908 SLP198 T02001061





000
SAUS46 KSGX 081953
MTRCZZ
METAR KCZZ 081952Z AUTO 06017G30KT 20/M06 A3019 RMK AO1 PK WND
07033/1908 SLP198 T02001061





000
SAUS46 KSGX 081853
MTRCZZ
METAR KCZZ 081852Z AUTO 06015G24KT 20/M06 A3021 RMK AO1 PK WND
05031/1816 SLP204 T02001056





000
SAUS46 KSGX 081753
MTRCZZ
METAR KCZZ 081752Z AUTO 04025G32KT 19/M06 A3019 RMK AO1 PK WND
05036/1729 SLP198 T01941056 10194 20161 50010





000
SAUS46 KSGX 081653
MTRCZZ
METAR KCZZ 081652Z AUTO 04015G30KT 19/M06 A3019 RMK AO1 PK WND
04030/1646 SLP198 T01891056





000
SAUS46 KSGX 081553
MTRCZZ
METAR KCZZ 081552Z AUTO 03014G21KT 18/M06 A3018 RMK AO1 PK WND
03027/1516 SLP193 T01781061





    US Dept of Commerce
    National Oceanic and Atmospheric Administration
    National Weather Service
    1325 East West Highway
    Silver Spring, MD 20910
    Page Author: NWS Internet Services Team
Disclaimer
Information Quality
Credits
Glossary
Privacy Policy
Freedom of Information Act (FOIA)
About Us
Career Opportunities